Time;durP1;ratioP1;P1;durP2;ratioP2;P2;SDS_P1;SDS_P2;PMS_P1;PMS_P2;Temp;Humidity;BMP_temperature;BMP_pressure;BME280_temperature;BME280_humidity;BME280_pressure;Samples;Min_cycle;Max_cycle;Signal;HPM_P1;HPM_P2
2021/12/12 00:02:34;;;;;;;15.30;10.10;;;5.00;96.70;;;;;;4873407;29;20055;-70
2021/12/12 00:05:08;;;;;;;17.10;10.43;;;5.00;96.70;;;;;;4854576;29;20041;-70
2021/12/12 00:07:37;;;;;;;14.05;9.43;;;5.10;96.70;;;;;;4872339;29;20113;-70
2021/12/12 00:10:09;;;;;;;16.38;10.57;;;4.90;96.70;;;;;;4869224;29;20060;-70
2021/12/12 00:12:43;;;;;;;16.45;10.80;;;4.80;96.70;;;;;;4872593;29;20041;-70
2021/12/12 00:15:16;;;;;;;18.73;10.35;;;4.70;96.70;;;;;;4875112;29;20037;-70
2021/12/12 00:17:44;;;;;;;19.75;13.20;;;4.80;96.70;;;;;;4874661;29;20049;-70
2021/12/12 00:20:15;;;;;;;16.05;10.43;;;4.70;96.70;;;;;;4866172;29;20040;-70
2021/12/12 00:22:43;;;;;;;15.90;9.65;;;4.60;96.70;;;;;;4854098;29;20040;-70
2021/12/12 00:25:12;;;;;;;15.05;9.27;;;4.60;96.70;;;;;;4868427;29;20041;-70
2021/12/12 00:27:40;;;;;;;15.77;9.68;;;4.70;96.70;;;;;;4872616;29;20043;-70
2021/12/12 00:30:12;;;;;;;16.08;9.40;;;4.70;96.70;;;;;;4870108;29;20045;-70
2021/12/12 00:32:40;;;;;;;15.20;9.20;;;4.70;96.70;;;;;;4873435;29;20045;-70
2021/12/12 00:35:11;;;;;;;16.55;9.70;;;4.70;96.70;;;;;;4869483;29;20044;-70
2021/12/12 00:37:40;;;;;;;13.75;9.35;;;4.60;96.70;;;;;;4859146;29;20045;-70
2021/12/12 00:40:12;;;;;;;16.38;9.68;;;4.60;96.70;;;;;;4871074;29;20053;-70
2021/12/12 00:42:40;;;;;;;18.33;10.80;;;4.60;96.70;;;;;;4864555;29;20606;-70
2021/12/12 00:45:12;;;;;;;17.63;10.68;;;4.50;96.70;;;;;;4850405;29;20036;-71
2021/12/12 00:47:42;;;;;;;21.98;10.55;;;4.40;96.70;;;;;;4855284;29;20203;-71
2021/12/12 00:50:14;;;;;;;17.98;11.02;;;4.40;96.70;;;;;;4868709;29;20128;-71
2021/12/12 00:52:44;;;;;;;18.60;10.25;;;4.50;96.70;;;;;;4851140;29;20088;-71
2021/12/12 00:55:12;;;;;;;18.60;11.50;;;4.50;96.70;;;;;;4871088;29;20049;-71
2021/12/12 00:57:40;;;;;;;19.25;11.57;;;4.50;96.70;;;;;;4869357;29;20428;-71
2021/12/12 01:00:13;;;;;;;20.63;11.43;;;4.50;96.70;;;;;;4870473;29;20440;-71
2021/12/12 01:02:40;;;;;;;18.17;10.85;;;4.30;96.70;;;;;;4853027;29;20041;-71
2021/12/12 01:05:11;;;;;;;17.33;10.57;;;4.20;96.70;;;;;;4870574;29;20063;-71
2021/12/12 01:07:42;;;;;;;14.18;9.88;;;4.10;96.70;;;;;;4869816;29;20128;-71
2021/12/12 01:10:14;;;;;;;14.85;10.30;;;4.10;96.70;;;;;;4870744;29;20527;-71
2021/12/12 01:12:43;;;;;;;15.52;9.20;;;4.10;96.70;;;;;;4868437;29;20040;-71
2021/12/12 01:15:17;;;;;;;14.10;8.93;;;4.10;96.70;;;;;;4868358;29;20037;-71
2021/12/12 01:17:48;;;;;;;12.90;8.13;;;4.10;96.70;;;;;;4838181;29;20152;-71
2021/12/12 01:20:22;;;;;;;10.90;7.78;;;4.00;96.70;;;;;;4854166;29;20056;-71
2021/12/12 01:22:52;;;;;;;12.13;7.32;;;4.00;96.70;;;;;;4854011;29;20045;-71
2021/12/12 01:25:25;;;;;;;11.50;6.82;;;4.00;96.70;;;;;;4871935;29;20258;-71
2021/12/12 01:27:54;;;;;;;10.95;7.13;;;4.10;96.70;;;;;;4866789;29;20136;-71
2021/12/12 01:30:24;;;;;;;11.88;5.90;;;4.10;96.70;;;;;;4868695;29;20407;-71
2021/12/12 01:32:53;;;;;;;10.57;6.35;;;4.00;96.70;;;;;;4867293;29;20048;-71
2021/12/12 01:35:22;;;;;;;10.68;5.35;;;4.00;96.70;;;;;;4868809;29;20041;-71
2021/12/12 01:40:44;;;;;;;7.78;4.80;;;4.00;96.70;;;;;;4869646;29;20479;-71
2021/12/12 01:43:20;;;;;;;8.30;4.95;;;4.00;96.70;;;;;;4865673;29;20043;-70
2021/12/12 01:45:55;;;;;;;7.38;4.10;;;4.00;96.70;;;;;;4850534;29;20389;-71
2021/12/12 01:48:27;;;;;;;5.88;4.10;;;4.10;96.70;;;;;;4871213;29;20089;-70
2021/12/12 01:50:58;;;;;;;6.20;3.42;;;4.10;96.70;;;;;;4868505;29;20049;-70
2021/12/12 01:53:29;;;;;;;8.25;3.90;;;4.20;96.70;;;;;;4869691;29;20551;-70
2021/12/12 01:56:00;;;;;;;7.55;4.10;;;4.20;96.70;;;;;;4867942;29;20462;-70
2021/12/12 01:58:31;;;;;;;9.30;5.05;;;4.10;96.70;;;;;;4872189;29;20049;-69
2021/12/12 02:01:05;;;;;;;9.45;5.10;;;4.20;96.70;;;;;;4868710;29;20049;-71
2021/12/12 02:03:37;;;;;;;7.22;4.70;;;4.00;96.70;;;;;;4869640;29;20582;-71
2021/12/12 02:06:08;;;;;;;8.43;4.93;;;3.80;96.70;;;;;;4849276;29;20410;-70
2021/12/12 02:08:38;;;;;;;9.25;4.55;;;3.90;96.70;;;;;;4872056;29;20143;-70
2021/12/12 02:11:11;;;;;;;7.28;4.50;;;3.90;96.70;;;;;;4852448;29;20591;-70
2021/12/12 02:13:42;;;;;;;8.35;4.10;;;3.90;96.70;;;;;;4848793;29;20049;-70
2021/12/12 02:16:12;;;;;;;7.68;4.35;;;3.80;96.70;;;;;;4867479;29;20055;-70
2021/12/12 02:18:46;;;;;;;6.57;4.07;;;3.80;96.70;;;;;;4838055;29;20052;-70
2021/12/12 02:21:25;;;;;;;7.30;3.97;;;3.90;96.70;;;;;;4836843;29;20552;-70
2021/12/12 02:35:16;;;;;;;7.88;4.60;;;4.00;96.70;;;;;;4867511;29;20068;-70
2021/12/12 02:37:45;;;;;;;8.95;5.13;;;3.90;96.70;;;;;;4869052;29;20077;-70
2021/12/12 02:40:19;;;;;;;8.45;5.60;;;3.90;96.70;;;;;;4846121;29;20448;-70
2021/12/12 02:42:47;;;;;;;7.80;4.90;;;3.90;96.70;;;;;;4871784;29;20453;-70
2021/12/12 02:45:17;;;;;;;7.57;4.70;;;3.70;96.70;;;;;;4869131;29;20096;-70
2021/12/12 02:47:57;;;;;;;6.05;4.20;;;3.70;96.70;;;;;;4866917;29;20120;-69
2021/12/12 02:50:32;;;;;;;5.38;3.80;;;3.60;96.70;;;;;;4867581;29;20156;-70
2021/12/12 02:53:03;;;;;;;6.45;3.90;;;3.60;96.70;;;;;;4872697;29;20128;-70
2021/12/12 02:55:36;;;;;;;4.88;2.97;;;3.60;96.70;;;;;;4870503;29;20127;-70
2021/12/12 02:58:07;;;;;;;4.63;3.03;;;3.50;96.70;;;;;;4867612;29;20419;-70
2021/12/12 03:00:40;;;;;;;5.30;3.15;;;3.40;96.70;;;;;;4854869;29;20056;-70
2021/12/12 03:03:08;;;;;;;6.15;3.15;;;3.40;96.70;;;;;;4865897;29;20045;-70
2021/12/12 03:05:42;;;;;;;4.57;2.90;;;3.30;96.70;;;;;;4873553;29;20045;-70
2021/12/12 03:08:11;;;;;;;5.05;2.60;;;3.30;96.70;;;;;;4866964;29;20188;-70
2021/12/12 03:10:43;;;;;;;5.90;2.60;;;3.30;96.70;;;;;;4848091;29;20525;-70
2021/12/12 03:13:11;;;;;;;3.95;2.63;;;3.40;96.70;;;;;;4866497;29;20073;-70
2021/12/12 03:15:41;;;;;;;4.15;2.45;;;3.50;96.70;;;;;;4867503;29;20125;-70
2021/12/12 03:18:13;;;;;;;3.72;2.33;;;3.40;96.70;;;;;;4866046;29;20204;-70
2021/12/12 03:20:44;;;;;;;3.70;2.33;;;3.30;96.70;;;;;;4868342;29;20064;-70
2021/12/12 03:23:17;;;;;;;5.10;2.35;;;3.30;96.70;;;;;;4872003;29;20052;-70
2021/12/12 03:25:49;;;;;;;3.65;2.10;;;3.30;96.70;;;;;;4867449;29;20104;-70
2021/12/12 03:28:21;;;;;;;3.75;1.75;;;3.30;96.70;;;;;;4845875;29;20060;-70
2021/12/12 03:30:52;;;;;;;3.00;1.85;;;3.20;96.70;;;;;;4852378;29;20136;-70
2021/12/12 03:33:21;;;;;;;3.88;2.00;;;3.20;96.70;;;;;;4854203;29;20045;-70
2021/12/12 03:35:52;;;;;;;3.47;2.38;;;3.20;96.70;;;;;;4866147;29;20041;-70
2021/12/12 03:38:23;;;;;;;5.72;3.10;;;3.30;96.70;;;;;;4850302;29;20053;-70
2021/12/12 03:40:53;;;;;;;5.78;3.10;;;3.30;96.70;;;;;;4849804;29;20392;-69
2021/12/12 03:43:22;;;;;;;4.75;2.90;;;3.30;96.70;;;;;;4868412;29;20124;-70
2021/12/12 03:45:50;;;;;;;4.30;2.50;;;3.30;96.70;;;;;;4850517;29;20045;-70
2021/12/12 03:48:21;;;;;;;5.13;2.47;;;3.30;96.70;;;;;;4855936;29;20048;-70
2021/12/12 03:50:53;;;;;;;3.50;2.10;;;3.40;96.70;;;;;;4867309;29;20049;-70
2021/12/12 03:53:21;;;;;;;3.88;2.00;;;3.40;96.70;;;;;;4865778;29;20109;-69
2021/12/12 03:55:49;;;;;;;3.50;2.33;;;3.40;96.70;;;;;;4870728;29;20040;-70
2021/12/12 03:58:19;;;;;;;3.38;2.00;;;3.30;96.70;;;;;;4864249;29;20132;-70
2021/12/12 04:00:51;;;;;;;4.47;1.77;;;3.30;96.70;;;;;;4869999;29;20114;-69
2021/12/12 04:03:19;;;;;;;3.85;2.10;;;3.40;96.70;;;;;;4854669;29;20048;-70
2021/12/12 04:05:56;;;;;;;4.95;2.50;;;3.30;96.70;;;;;;4867886;29;20037;-70
2021/12/12 04:08:26;;;;;;;4.07;2.50;;;3.20;96.70;;;;;;4856436;29;20152;-70
2021/12/12 04:10:54;;;;;;;6.80;3.25;;;3.20;96.70;;;;;;4867493;29;20579;-70
2021/12/12 04:13:24;;;;;;;4.78;2.85;;;3.20;96.70;;;;;;4876681;29;20053;-70
2021/12/12 04:15:53;;;;;;;4.95;3.00;;;3.20;96.70;;;;;;4853760;29;20041;-70
2021/12/12 04:18:22;;;;;;;6.00;3.20;;;3.20;96.70;;;;;;4871219;29;20126;-70
2021/12/12 04:20:50;;;;;;;7.13;3.35;;;3.20;96.70;;;;;;4854142;29;20417;-70
2021/12/12 04:23:22;;;;;;;7.65;3.58;;;3.20;96.70;;;;;;4852566;29;20304;-69
2021/12/12 04:25:50;;;;;;;6.80;3.38;;;3.10;96.70;;;;;;4868897;29;20405;-70
2021/12/12 04:28:18;;;;;;;5.40;3.53;;;3.00;96.70;;;;;;4871053;29;20051;-70
2021/12/12 04:30:48;;;;;;;6.68;3.40;;;3.10;96.70;;;;;;4853481;29;20072;-70
2021/12/12 04:33:16;;;;;;;7.38;3.67;;;3.10;96.70;;;;;;4855545;29;20500;-69
2021/12/12 04:35:44;;;;;;;7.32;4.00;;;3.10;96.70;;;;;;4853712;29;20173;-70
2021/12/12 04:38:11;;;;;;;6.28;4.32;;;3.00;96.70;;;;;;4866766;29;20045;-70
2021/12/12 04:40:39;;;;;;;8.35;3.75;;;2.90;96.70;;;;;;4835876;29;20309;-69
2021/12/12 04:43:07;;;;;;;6.80;3.95;;;2.90;96.70;;;;;;4869010;29;20053;-69
2021/12/12 04:45:50;;;;;;;4.78;3.25;;;2.90;96.70;;;;;;4853306;29;20049;-69
2021/12/12 04:51:20;;;;;;;4.75;2.70;;;2.90;96.70;;;;;;4868232;29;20049;-69
2021/12/12 04:53:51;;;;;;;5.35;2.60;;;2.90;96.70;;;;;;4868675;29;20258;-69
2021/12/12 04:56:29;;;;;;;4.05;2.28;;;3.00;96.70;;;;;;4869628;29;20053;-70
2021/12/12 04:59:03;;;;;;;4.07;2.33;;;3.00;96.70;;;;;;4870397;29;20507;-69
2021/12/12 05:01:36;;;;;;;4.07;1.70;;;2.90;96.70;;;;;;4853274;29;20080;-69
2021/12/12 05:04:10;;;;;;;4.25;1.80;;;2.90;96.70;;;;;;4865335;29;20041;-70
2021/12/12 05:06:43;;;;;;;4.45;1.70;;;2.90;96.70;;;;;;4870996;29;20437;-70
2021/12/12 05:09:18;;;;;;;3.10;1.90;;;3.00;96.70;;;;;;4872098;29;20055;-70
2021/12/12 05:11:51;;;;;;;2.85;1.70;;;3.10;96.70;;;;;;4854139;29;20049;-70
2021/12/12 05:14:23;;;;;;;2.83;1.60;;;3.00;96.70;;;;;;4851624;29;20456;-70
2021/12/12 05:17:01;;;;;;;;;;;3.00;96.70;;;;;;4868446;29;20153;-70
2021/12/12 05:19:33;;;;;;;4.68;1.98;;;3.10;96.70;;;;;;4869632;29;20026;-69
2021/12/12 05:22:07;;;;;;;3.88;2.42;;;3.00;96.70;;;;;;4854258;29;20049;-70
2021/12/12 05:24:37;;;;;;;3.00;1.80;;;3.20;96.70;;;;;;4869608;29;20076;-69
2021/12/12 05:27:08;;;;;;;2.95;2.10;;;3.20;96.70;;;;;;4868414;29;20053;-70
2021/12/12 05:29:41;;;;;;;4.40;2.17;;;3.10;96.70;;;;;;4868477;29;20093;-69
2021/12/12 05:32:11;;;;;;;3.53;2.05;;;3.00;96.70;;;;;;4866783;29;20056;-70
2021/12/12 05:34:44;;;;;;;3.33;2.00;;;3.00;96.70;;;;;;4869154;29;20049;-70
2021/12/12 05:37:13;;;;;;;3.88;1.85;;;2.80;96.70;;;;;;4871380;29;20045;-69
2021/12/12 05:39:41;;;;;;;2.40;1.50;;;2.90;96.70;;;;;;4855113;29;21075;-70
2021/12/12 05:42:10;;;;;;;3.75;1.70;;;3.00;96.70;;;;;;4853582;29;20068;-70
2021/12/12 05:44:38;;;;;;;2.92;1.80;;;2.90;96.70;;;;;;4868994;29;20041;-70
2021/12/12 05:47:09;;;;;;;3.40;1.73;;;2.80;96.70;;;;;;4868636;29;20040;-70
2021/12/12 05:49:41;;;;;;;3.53;1.58;;;2.80;96.70;;;;;;4851450;29;20130;-70
2021/12/12 05:52:13;;;;;;;3.60;2.00;;;2.80;96.70;;;;;;4865615;29;20736;-70
2021/12/12 05:54:41;;;;;;;3.50;1.98;;;2.70;96.70;;;;;;4866888;29;20120;-70
2021/12/12 05:57:10;;;;;;;3.42;1.90;;;2.70;96.70;;;;;;4866865;29;20045;-70
2021/12/12 05:59:38;;;;;;;3.28;1.95;;;2.70;96.70;;;;;;4852327;29;20461;-69
2021/12/12 06:02:07;;;;;;;4.55;2.30;;;2.70;96.70;;;;;;4853507;29;20045;-70
2021/12/12 06:04:35;;;;;;;4.82;2.40;;;2.80;96.70;;;;;;4869108;29;20463;-69
2021/12/12 06:07:08;;;;;;;4.90;2.97;;;2.70;96.70;;;;;;4869477;29;20049;-69
2021/12/12 06:09:37;;;;;;;6.05;3.42;;;2.80;96.70;;;;;;4869191;29;20598;-70
2021/12/12 06:12:06;;;;;;;6.95;3.40;;;2.60;96.70;;;;;;4851923;29;20065;-70
2021/12/12 06:14:37;;;;;;;4.10;2.35;;;2.60;96.70;;;;;;4851228;29;20121;-70
2021/12/12 06:17:08;;;;;;;6.10;2.20;;;2.70;96.70;;;;;;4836096;29;20041;-70
2021/12/12 06:19:37;;;;;;;4.10;2.10;;;2.60;96.70;;;;;;4865444;29;20916;-69
2021/12/12 06:22:08;;;;;;;4.05;1.88;;;2.60;96.70;;;;;;4867498;29;20049;-70
2021/12/12 06:24:37;;;;;;;4.78;2.30;;;2.50;96.70;;;;;;4856213;29;20045;-69
2021/12/12 06:27:07;;;;;;;4.40;2.85;;;2.30;96.70;;;;;;4868398;29;20045;-70
2021/12/12 06:29:35;;;;;;;4.53;3.20;;;2.20;96.70;;;;;;4865408;29;20435;-70
2021/12/12 06:32:04;;;;;;;5.30;2.83;;;2.10;96.70;;;;;;4870194;29;20128;-69
2021/12/12 06:34:33;;;;;;;5.45;2.97;;;2.20;96.70;;;;;;4850675;29;20105;-70
2021/12/12 06:37:02;;;;;;;4.15;2.47;;;2.10;96.70;;;;;;4868312;29;20051;-70
2021/12/12 06:39:32;;;;;;;4.30;2.78;;;2.20;96.70;;;;;;4867489;29;20052;-70
2021/12/12 06:42:00;;;;;;;3.40;2.15;;;2.30;96.70;;;;;;4867183;29;20144;-70
2021/12/12 06:44:28;;;;;;;6.47;3.35;;;2.30;96.70;;;;;;4866974;29;20097;-70
2021/12/12 06:46:56;;;;;;;3.60;2.58;;;2.40;96.70;;;;;;4855734;29;20053;-70
2021/12/12 06:49:24;;;;;;;3.75;2.20;;;2.50;96.70;;;;;;4868589;29;20037;-70
2021/12/12 06:51:55;;;;;;;3.95;2.72;;;2.50;96.70;;;;;;4853335;29;20049;-70
2021/12/12 06:54:26;;;;;;;5.10;2.80;;;2.40;96.70;;;;;;4868134;29;20547;-70
2021/12/12 06:56:58;;;;;;;6.68;3.22;;;2.50;96.70;;;;;;4855522;29;20065;-70
2021/12/12 06:59:28;;;;;;;4.88;2.70;;;2.40;96.70;;;;;;4867117;29;20049;-70
2021/12/12 07:01:58;;;;;;;3.53;2.70;;;2.40;96.70;;;;;;4867084;29;20056;-70
2021/12/12 07:04:27;;;;;;;5.63;3.35;;;2.30;96.70;;;;;;4854152;29;20056;-70
2021/12/12 07:06:58;;;;;;;5.63;2.70;;;2.30;96.70;;;;;;4868865;29;20562;-70
2021/12/12 07:09:30;;;;;;;4.45;2.88;;;2.40;96.70;;;;;;4868171;29;20081;-70
2021/12/12 07:12:03;;;;;;;5.22;2.85;;;2.40;96.70;;;;;;4850184;29;20101;-70
2021/12/12 07:14:31;;;;;;;6.55;2.90;;;2.40;96.70;;;;;;4869818;29;20416;-69
2021/12/12 07:17:00;;;;;;;8.68;2.90;;;2.40;96.70;;;;;;4868138;29;20041;-70
2021/12/12 07:19:28;;;;;;;5.05;3.30;;;2.30;96.70;;;;;;4865851;29;20051;-70
2021/12/12 07:21:59;;;;;;;8.18;3.83;;;2.40;96.70;;;;;;4870736;29;20381;-70
2021/12/12 07:24:29;;;;;;;6.28;3.63;;;2.50;96.70;;;;;;4874867;29;20069;-69
2021/12/12 07:26:59;;;;;;;6.72;3.97;;;2.50;96.70;;;;;;4866379;29;20044;-70
2021/12/12 07:29:27;;;;;;;5.05;3.28;;;2.50;96.70;;;;;;4855325;29;20520;-70
2021/12/12 07:31:56;;;;;;;6.85;4.00;;;2.60;96.70;;;;;;4875141;29;20041;-70
2021/12/12 07:34:25;;;;;;;6.97;3.33;;;2.60;96.70;;;;;;4867599;29;20056;-70
2021/12/12 07:36:55;;;;;;;5.55;3.40;;;2.60;96.70;;;;;;4863437;29;20100;-70
2021/12/12 07:39:23;;;;;;;6.15;3.75;;;2.70;96.70;;;;;;4857207;29;20041;-70
2021/12/12 07:41:53;;;;;;;5.00;3.17;;;2.80;96.70;;;;;;4870213;29;20045;-70
2021/12/12 07:44:27;;;;;;;6.25;3.45;;;2.90;96.70;;;;;;4871961;29;20049;-70
2021/12/12 07:46:59;;;;;;;5.03;3.35;;;2.90;96.70;;;;;;4871430;29;20052;-70
2021/12/12 07:49:31;;;;;;;5.00;3.10;;;2.90;96.70;;;;;;4864654;29;20072;-70
2021/12/12 07:51:59;;;;;;;5.63;3.05;;;3.00;96.70;;;;;;4871875;29;20049;-70
2021/12/12 07:54:29;;;;;;;5.30;3.38;;;3.10;96.70;;;;;;4854215;29;20049;-70
2021/12/12 07:56:57;;;;;;;6.30;3.10;;;3.10;96.70;;;;;;4870466;29;20053;-70
2021/12/12 07:59:26;;;;;;;5.22;2.85;;;3.20;96.70;;;;;;4853020;29;20045;-70
2021/12/12 08:01:54;;;;;;;5.65;3.03;;;3.10;96.70;;;;;;4870051;29;20057;-70
2021/12/12 08:04:26;;;;;;;4.72;3.15;;;3.10;96.70;;;;;;4870508;29;20037;-70
2021/12/12 08:06:55;;;;;;;5.03;3.15;;;3.20;96.70;;;;;;4868069;29;20061;-70
2021/12/12 08:09:23;;;;;;;5.55;3.17;;;3.20;96.70;;;;;;4875169;29;20047;-70
2021/12/12 08:11:52;;;;;;;6.22;3.03;;;3.30;96.70;;;;;;4872556;29;20520;-70
2021/12/12 08:14:23;;;;;;;6.40;3.33;;;3.30;96.70;;;;;;4870630;29;20558;-70
2021/12/12 08:16:54;;;;;;;7.05;4.90;;;3.40;96.70;;;;;;4870244;29;20492;-70
2021/12/12 08:19:25;;;;;;;7.13;5.05;;;3.30;96.70;;;;;;4855805;29;20109;-70
2021/12/12 08:21:54;;;;;;;8.93;5.75;;;3.40;96.70;;;;;;4852755;29;20052;-70
2021/12/12 08:24:23;;;;;;;6.88;5.05;;;3.50;96.70;;;;;;4854584;29;20045;-70
2021/12/12 08:26:52;;;;;;;8.75;4.88;;;3.50;96.70;;;;;;4872585;29;20068;-70
2021/12/12 08:29:20;;;;;;;7.90;4.78;;;3.50;96.70;;;;;;4855090;29;20040;-70
2021/12/12 08:31:49;;;;;;;6.63;3.80;;;3.50;96.70;;;;;;4871138;29;20586;-70
2021/12/12 08:34:18;;;;;;;4.85;3.80;;;3.50;96.70;;;;;;4850878;29;20610;-70
2021/12/12 08:36:49;;;;;;;5.78;3.83;;;3.60;96.70;;;;;;4854978;29;20289;-70
2021/12/12 08:39:18;;;;;;;6.30;3.90;;;3.60;96.70;;;;;;4872441;29;20495;-70
2021/12/12 08:41:49;;;;;;;6.65;4.38;;;3.70;96.70;;;;;;4875026;29;20041;-70
2021/12/12 08:44:18;;;;;;;6.72;3.90;;;3.80;96.70;;;;;;4856643;29;20152;-70
2021/12/12 08:46:50;;;;;;;7.50;4.53;;;3.90;96.70;;;;;;4870153;29;20052;-70
2021/12/12 08:49:24;;;;;;;7.22;4.10;;;4.00;96.70;;;;;;4870716;29;20052;-70
2021/12/12 08:51:54;;;;;;;6.28;4.75;;;4.10;96.70;;;;;;4869624;29;20053;-70
2021/12/12 08:54:27;;;;;;;6.70;4.63;;;4.20;96.70;;;;;;4867976;29;20060;-70
2021/12/12 08:57:03;;;;;;;7.38;4.70;;;4.20;96.70;;;;;;4852319;29;20389;-70
2021/12/12 08:59:33;;;;;;;;;;;4.20;96.70;;;;;;4870327;29;20037;-70
2021/12/12 09:02:05;;;;;;;7.28;4.57;;;4.20;96.70;;;;;;4841576;29;20063;-69
2021/12/12 09:04:39;;;;;;;7.38;4.57;;;4.20;96.70;;;;;;4869770;29;20143;-70
2021/12/12 09:07:11;;;;;;;8.95;4.97;;;4.30;96.70;;;;;;4854013;29;20551;-70
2021/12/12 09:09:44;;;;;;;7.50;4.50;;;4.30;96.70;;;;;;4839529;29;20392;-71
2021/12/12 09:12:19;;;;;;;7.72;4.45;;;4.50;96.70;;;;;;4869886;29;20041;-70
2021/12/12 09:14:55;;;;;;;10.45;5.65;;;4.60;96.70;;;;;;4856786;29;20045;-70
2021/12/12 09:17:30;;;;;;;8.68;4.22;;;4.80;96.70;;;;;;4855081;29;20053;-69
2021/12/12 09:20:10;;;;;;;8.52;4.68;;;4.80;96.70;;;;;;4870765;29;20419;-70
2021/12/12 09:22:44;;;;;;;7.13;4.72;;;4.90;96.70;;;;;;4851727;29;20076;-70
2021/12/12 09:25:20;;;;;;;8.07;5.13;;;4.90;96.70;;;;;;4873817;29;20045;-70
2021/12/12 09:27:53;;;;;;;6.93;5.37;;;5.00;96.70;;;;;;4855197;29;20057;-69
2021/12/12 09:30:23;;;;;;;8.20;5.18;;;5.20;96.70;;;;;;4839925;29;20045;-70
2021/12/12 09:32:56;;;;;;;7.47;4.97;;;5.30;96.70;;;;;;4870534;29;20056;-69
2021/12/12 09:35:29;;;;;;;8.18;5.57;;;5.30;96.70;;;;;;4872743;29;20104;-69
2021/12/12 09:38:02;;;;;;;8.68;5.85;;;5.40;96.70;;;;;;4856095;29;20559;-70
2021/12/12 09:40:52;;;;;;;9.15;5.22;;;5.50;96.70;;;;;;4868620;29;20057;-69
2021/12/12 09:43:37;;;;;;;5.60;4.72;;;5.70;96.70;;;;;;4850576;29;20445;-70
2021/12/12 09:46:26;;;;;;;10.52;6.07;;;5.90;96.70;;;;;;4854612;29;20452;-70
2021/12/12 09:52:31;;;;;;;6.93;5.20;;;6.10;96.70;;;;;;4866798;29;20037;-70
2021/12/12 09:55:07;;;;;;;8.40;5.90;;;6.30;96.70;;;;;;4852134;29;20454;-70
2021/12/12 09:57:42;;;;;;;8.70;6.53;;;6.40;96.70;;;;;;4850998;29;20560;-70
2021/12/12 10:00:16;;;;;;;10.20;6.72;;;6.50;96.70;;;;;;4853366;29;20872;-70
2021/12/12 10:02:59;;;;;;;10.68;8.25;;;6.60;96.70;;;;;;4848071;29;20081;-70
2021/12/12 10:05:36;;;;;;;12.20;8.68;;;6.80;96.70;;;;;;4867045;29;20056;-70
2021/12/12 10:08:22;;;;;;;13.45;8.82;;;6.90;96.70;;;;;;4867161;29;20060;-71
2021/12/12 10:10:57;;;;;;;8.45;6.53;;;7.10;96.70;;;;;;4865290;29;20049;-71
2021/12/12 10:13:31;;;;;;;10.63;7.47;;;7.10;96.70;;;;;;4871700;29;20132;-70
2021/12/12 10:16:04;;;;;;;10.73;6.32;;;7.10;96.70;;;;;;4866789;29;20452;-71
2021/12/12 10:18:43;;;;;;;11.50;7.07;;;7.20;96.70;;;;;;4870239;29;20065;-71
2021/12/12 10:21:16;;;;;;;11.57;6.18;;;7.30;96.70;;;;;;4866524;29;20076;-71
2021/12/12 10:24:02;;;;;;;6.53;5.75;;;7.30;96.70;;;;;;4867616;29;20132;-71
2021/12/12 10:26:36;;;;;;;7.38;5.57;;;7.40;96.70;;;;;;4869610;29;20056;-71
2021/12/12 10:29:10;;;;;;;10.55;6.05;;;7.50;96.70;;;;;;4868131;29;20584;-71
2021/12/12 10:31:42;;;;;;;9.52;7.30;;;7.70;96.70;;;;;;4850591;29;20041;-71
2021/12/12 10:34:14;;;;;;;12.60;9.02;;;7.80;96.70;;;;;;4851210;29;20225;-72
2021/12/12 10:36:50;;;;;;;10.95;7.82;;;7.80;96.70;;;;;;4873219;29;20037;-69
2021/12/12 10:39:23;;;;;;;12.70;7.97;;;7.90;96.70;;;;;;4869257;29;20073;-69
2021/12/12 10:41:55;;;;;;;11.55;7.75;;;8.00;96.70;;;;;;4854880;29;20152;-69
2021/12/12 10:44:28;;;;;;;10.93;8.48;;;8.20;96.70;;;;;;4871625;29;20309;-70
2021/12/12 10:47:04;;;;;;;13.20;7.70;;;8.40;96.70;;;;;;4851436;29;20451;-70
2021/12/12 10:49:38;;;;;;;8.55;6.70;;;8.40;96.70;;;;;;4853780;29;20057;-70
2021/12/12 10:52:10;;;;;;;8.20;6.18;;;8.50;96.70;;;;;;4856588;29;20101;-70
2021/12/12 10:54:43;;;;;;;8.05;5.65;;;8.50;96.70;;;;;;4854071;29;20148;-70
2021/12/12 10:57:16;;;;;;;12.07;5.28;;;8.60;96.70;;;;;;4870608;29;20044;-70
2021/12/12 10:59:48;;;;;;;9.82;5.82;;;8.60;96.70;;;;;;4870014;29;20053;-71
2021/12/12 11:02:21;;;;;;;7.18;4.70;;;8.70;96.70;;;;;;4854190;29;20059;-70
2021/12/12 11:17:21;;;;;;;8.25;5.75;;;8.90;96.70;;;;;;4990306;28;21110;-70
2021/12/12 11:19:55;;;;;;;8.43;5.47;;;9.60;96.70;;;;;;4974342;28;20051;-69
2021/12/12 11:22:29;;;;;;;8.10;5.82;;;9.70;96.70;;;;;;4973399;28;20045;-69
2021/12/12 11:25:05;;;;;;;8.65;5.68;;;9.80;96.70;;;;;;4967979;28;20077;-70
2021/12/12 11:27:39;;;;;;;7.50;5.30;;;9.90;96.70;;;;;;4953862;28;20050;-69
2021/12/12 11:30:11;;;;;;;5.85;4.53;;;10.00;96.70;;;;;;4971451;28;20504;-70
2021/12/12 11:32:41;;;;;;;8.45;5.18;;;10.20;96.70;;;;;;4954996;28;20432;-69
2021/12/12 11:35:12;;;;;;;9.15;5.55;;;10.20;96.70;;;;;;4978772;28;20447;-70
2021/12/12 11:37:48;;;;;;;9.25;6.13;;;10.30;96.70;;;;;;4969525;28;20137;-69
2021/12/12 11:40:22;;;;;;;7.82;6.88;;;10.50;96.70;;;;;;4975113;28;20542;-70
2021/12/12 11:42:58;;;;;;;9.73;6.22;;;10.70;96.70;;;;;;4974053;28;20046;-69
2021/12/12 11:45:30;;;;;;;10.73;7.35;;;10.80;96.70;;;;;;4970600;28;20089;-70
2021/12/12 11:48:18;;;;;;;7.68;4.65;;;10.90;96.70;;;;;;4974245;28;20441;-70
2021/12/12 11:50:54;;;;;;;8.27;4.47;;;11.00;96.70;;;;;;4979789;28;20082;-70
2021/12/12 11:53:33;;;;;;;7.53;4.82;;;11.10;96.70;;;;;;4968260;28;20053;-70
2021/12/12 11:56:09;;;;;;;14.57;7.32;;;11.20;96.70;;;;;;4975210;28;20042;-69
2021/12/12 11:58:41;;;;;;;5.60;3.53;;;11.30;96.70;;;;;;4966949;28;20034;-70
2021/12/12 12:01:22;;;;;;;4.90;3.47;;;11.40;96.70;;;;;;4988349;28;20559;-69
2021/12/12 12:04:20;;;;;;;6.00;3.97;;;11.50;96.70;;;;;;4977147;28;20120;-70
2021/12/12 12:07:05;;;;;;;7.00;3.72;;;11.60;96.70;;;;;;4973208;28;20046;-70
2021/12/12 12:09:48;;;;;;;5.25;3.35;;;11.70;96.70;;;;;;4973010;28;20078;-70
2021/12/12 12:12:34;;;;;;;4.82;2.95;;;11.70;96.70;;;;;;4972555;28;20510;-69
2021/12/12 12:15:11;;;;;;;4.88;3.25;;;11.90;96.70;;;;;;4972128;28;20928;-69
2021/12/12 12:17:55;;;;;;;5.68;3.53;;;11.90;96.70;;;;;;4957325;28;20050;-70
2021/12/12 12:20:34;;;;;;;6.80;3.95;;;11.90;96.70;;;;;;4958284;28;20106;-69
2021/12/12 12:23:17;;;;;;;4.78;3.78;;;12.00;96.70;;;;;;4965779;28;20046;-69
2021/12/12 12:28:44;;;;;;;4.10;3.40;;;12.10;96.70;;;;;;4957770;28;20137;-70
2021/12/12 12:31:49;;;;;;;5.10;3.80;;;12.10;96.70;;;;;;4961605;28;20506;-69
2021/12/12 12:35:02;;;;;;;5.47;4.40;;;12.20;96.70;;;;;;4963812;28;20150;-70
2021/12/12 12:38:19;;;;;;;5.05;3.97;;;12.40;96.70;;;;;;4958130;28;20547;-71
2021/12/12 12:41:23;;;;;;;6.03;4.38;;;12.50;96.70;;;;;;4891983;29;20056;-71
2021/12/12 12:44:28;;;;;;;9.10;3.92;;;12.50;96.70;;;;;;4961418;28;20556;-71
2021/12/12 12:48:09;;;;;;;7.05;3.97;;;12.50;96.70;;;;;;4955681;28;20054;-71
2021/12/12 12:50:47;;;;;;;5.28;4.28;;;12.60;96.70;;;;;;4917134;29;20052;-72
2021/12/12 12:53:50;;;;;;;7.88;4.65;;;12.80;96.70;;;;;;4919596;29;20138;-72
2021/12/12 12:57:09;;;;;;;7.70;4.32;;;12.90;96.70;;;;;;4953553;28;20127;-72
2021/12/12 12:59:55;;;;;;;7.47;4.45;;;13.00;96.70;;;;;;4914149;29;20154;-71
2021/12/12 13:02:28;;;;;;;5.45;3.70;;;13.10;96.70;;;;;;4903797;29;20672;-72
2021/12/12 13:05:55;;;;;;;5.25;3.88;;;12.90;96.70;;;;;;4944181;28;20141;-72
2021/12/12 13:09:14;;;;;;;8.27;5.60;;;13.00;96.70;;;;;;4898689;29;20262;-72
2021/12/12 13:12:02;;;;;;;5.75;4.35;;;13.20;96.70;;;;;;4897553;29;20453;-72
2021/12/12 13:14:48;;;;;;;5.07;3.58;;;13.10;96.70;;;;;;4953965;28;21033;-72
2021/12/12 13:17:26;;;;;;;5.88;4.13;;;13.00;96.70;;;;;;4960360;28;20038;-72
2021/12/12 13:20:16;;;;;;;6.03;4.35;;;13.00;96.70;;;;;;4956685;28;20428;-71
2021/12/12 13:22:51;;;;;;;5.60;3.85;;;12.80;96.70;;;;;;4960810;28;20540;-72
2021/12/12 13:25:23;;;;;;;5.93;4.30;;;12.50;96.70;;;;;;4941265;28;20407;-72
2021/12/12 13:28:15;;;;;;;5.20;3.72;;;12.40;96.70;;;;;;4957031;28;20416;-72
2021/12/12 13:30:59;;;;;;;6.82;4.13;;;12.20;96.70;;;;;;4960475;28;20504;-71
2021/12/12 13:33:36;;;;;;;8.95;4.32;;;12.10;96.70;;;;;;4958284;28;20065;-71
2021/12/12 13:36:40;;;;;;;4.95;3.55;;;11.90;96.70;;;;;;4960603;28;20034;-71
2021/12/12 13:39:18;;;;;;;6.50;3.70;;;11.80;96.70;;;;;;4958395;28;20046;-72
2021/12/12 13:42:16;;;;;;;6.57;4.82;;;11.70;96.70;;;;;;4974780;28;20413;-72
2021/12/12 13:45:23;;;;;;;4.55;3.63;;;11.50;96.70;;;;;;4948635;28;20576;-72
2021/12/12 13:48:02;;;;;;;4.50;2.85;;;11.40;96.70;;;;;;4952865;28;20039;-71
2021/12/12 13:50:35;;;;;;;4.28;2.90;;;11.40;96.70;;;;;;4959734;28;20043;-72
2021/12/12 13:53:08;;;;;;;5.63;2.97;;;11.30;96.70;;;;;;4938080;28;20062;-71
2021/12/12 13:55:45;;;;;;;5.15;2.83;;;11.30;96.70;;;;;;4958938;28;20231;-71
2021/12/12 13:58:22;;;;;;;6.40;3.60;;;11.30;96.70;;;;;;4952302;28;20155;-72
2021/12/12 14:00:59;;;;;;;4.70;3.25;;;11.20;96.70;;;;;;4960100;28;20039;-71
2021/12/12 14:03:33;;;;;;;;;;;11.10;96.70;;;;;;4953896;28;20042;-72
2021/12/12 14:06:05;;;;;;;4.60;3.28;;;11.10;96.70;;;;;;4958224;28;20299;-71